.
WxDataArchive / Data Records for 2011-06-08
2011-06-07 June 2011 2011-06-09

Data Records for Wednesday, 08 June 2011

Time	Temp	Chill	HIndex	Humid	Dewpt	 Wind 	HiWind	WindDir	Rain 	Barom 
-----	----	-----	------	-----	-----	------	------	-------	-----	----- 
00:00	82.4	82.4	84.1	55	64.6	0	1	270	0.00	29.852 
00:05	82.2	82.2	83.8	55	64.4	0	1	270	0.00	29.852 
00:10	81.8	81.8	83.5	56	64.5	0	1	270	0.00	29.852 
00:15	81.6	81.6	83.2	56	64.4	0	1	270	0.00	29.852 
00:20	81.2	81.2	82.9	57	64.5	0	1	270	0.00	29.852 
00:25	81.1	81.1	82.8	57	64.4	0	1	270	0.00	29.852 
00:30	80.9	80.9	82.7	58	64.7	0	1	270	0.00	29.854 
00:35	80.7	80.7	82.4	58	64.5	0	1	270	0.00	29.854 
00:40	80.7	80.7	82.4	58	64.5	0	1	270	0.00	29.854 
00:45	80.5	80.5	82.2	58	64.3	0	1	270	0.00	29.856 
00:50	80.5	80.5	82.3	59	64.8	0	2	270	0.00	29.856 
00:55	80.7	80.7	82.5	59	65.0	0	2	270	0.00	29.856 
01:00	80.7	80.7	82.7	60	65.5	0	3	338	0.00	29.855 
01:05	80.7	80.7	82.7	60	65.5	0	3	315	0.00	29.855 
01:10	80.7	80.7	82.7	60	65.5	0	3	248	0.00	29.855 
01:15	80.7	80.7	82.8	61	66.0	1	3	270	0.00	29.853 
01:20	80.7	80.7	82.8	61	66.0	1	2	270	0.00	29.853 
01:25	80.7	80.7	82.9	62	66.4	0	2	270	0.00	29.853 
01:30	80.7	80.7	82.8	61	66.0	0	2	270	0.00	29.854 
01:35	80.9	80.9	83.1	61	66.2	1	4	270	0.00	29.854 
01:40	80.9	80.9	83.2	62	66.6	0	2	248	0.00	29.854 
01:45	80.9	80.9	83.1	61	66.2	0	2	248	0.00	29.856 
01:50	80.9	80.9	83.1	61	66.2	1	3	248	0.00	29.856 
01:55	80.9	80.9	83.1	61	66.2	0	3	248	0.00	29.856 
02:00	80.9	80.9	83.2	62	66.6	1	2	248	0.00	29.858 
02:05	80.9	80.9	83.2	62	66.6	1	3	248	0.00	29.858 
02:10	80.7	80.7	82.9	62	66.4	0	3	270	0.00	29.858 
02:15	80.7	80.7	82.9	62	66.4	0	1	270	0.00	29.857 
02:20	80.3	80.3	82.5	63	66.5	0	2	270	0.00	29.857 
02:25	80.1	80.1	82.3	63	66.3	0	3	270	0.00	29.857 
02:30	80.1	80.1	82.4	64	66.8	1	3	270	0.00	29.863 
02:35	79.9	79.9	82.1	64	66.6	0	1	270	0.00	29.863 
02:40	79.8	79.8	82.1	65	67.0	0	3	270	0.00	29.863 
02:45	79.6	79.6	81.8	65	66.8	0	3	270	0.00	29.863 
02:50	79.6	79.6	81.8	65	66.8	0	3	270	0.00	29.863 
02:55	79.6	79.6	81.8	65	66.8	0	2	270	0.00	29.863 
03:00	79.4	79.4	81.6	66	67.0	0	3	270	0.00	29.865 
03:05	79.2	79.2	81.4	66	66.8	0	1	270	0.00	29.865 
03:10	79.0	79.0	81.1	66	66.6	0	1	270	0.00	29.865 
03:15	78.8	78.8	80.9	67	66.9	0	2	270	0.00	29.864 
03:20	78.6	78.6	80.7	67	66.7	0	0	---	0.00	29.864 
03:25	78.5	78.5	80.6	68	67.0	0	1	270	0.00	29.864 
03:30	78.3	78.3	80.4	69	67.3	0	1	270	0.00	29.864 
03:35	78.1	78.1	80.1	69	67.1	0	1	270	0.00	29.864 
03:40	77.7	77.7	79.6	70	67.1	0	1	270	0.00	29.864 
03:45	77.6	77.6	79.5	70	67.0	0	1	270	0.00	29.862 
03:50	77.6	77.6	79.5	71	67.4	0	1	270	0.00	29.862 
03:55	77.4	77.4	79.3	71	67.2	0	1	270	0.00	29.862 
04:00	77.2	77.2	79.0	72	67.5	0	1	270	0.00	29.865 
04:05	77.0	77.0	78.7	73	67.7	0	2	270	0.00	29.865 
04:10	77.0	77.0	78.7	73	67.7	0	2	270	0.00	29.865 
04:15	77.0	77.0	78.7	73	67.7	0	2	270	0.00	29.864 
04:20	76.8	76.8	78.5	73	67.5	0	1	270	0.00	29.864 
04:25	76.7	76.7	78.3	73	67.4	0	1	270	0.00	29.864 
04:30	76.5	76.5	78.1	74	67.6	0	1	270	0.00	29.866 
04:35	76.5	76.5	78.1	74	67.6	0	1	270	0.00	29.866 
04:40	76.5	76.5	78.1	74	67.6	0	2	270	0.00	29.866 
04:45	76.3	76.3	77.7	75	67.8	0	1	270	0.00	29.866 
04:50	76.3	76.3	77.7	75	67.8	0	1	270	0.00	29.866 
04:55	76.1	76.1	77.5	75	67.6	0	1	270	0.00	29.866 
05:00	76.1	76.1	77.4	76	68.0	0	1	270	0.00	29.868 
05:05	76.0	76.0	77.3	76	67.9	0	1	270	0.00	29.868 
05:10	76.0	76.0	77.3	76	67.9	0	1	270	0.00	29.868 
05:15	75.8	75.8	77.0	77	68.1	0	1	270	0.00	29.869 
05:20	75.8	75.8	77.0	77	68.1	0	1	270	0.00	29.869 
05:25	75.6	75.6	76.7	77	67.9	0	1	270	0.00	29.869 
05:30	75.4	75.4	76.3	78	68.0	0	1	270	0.00	29.870 
05:35	75.3	75.3	76.2	78	68.0	0	1	270	0.00	29.870 
05:40	75.1	75.1	76.0	78	67.8	0	1	270	0.00	29.870 
05:45	74.9	74.9	74.9	78	67.6	0	1	270	0.00	29.875 
05:50	74.9	74.9	74.9	78	67.6	0	2	270	0.00	29.875 
05:55	75.1	75.1	76.0	78	67.8	0	1	270	0.00	29.875 
06:00	75.3	75.3	76.3	77	67.6	0	1	270	0.00	29.877 
06:05	75.3	75.3	76.3	77	67.6	0	1	270	0.00	29.877 
06:10	75.3	75.3	76.3	77	67.6	0	2	270	0.00	29.877 
06:15	75.3	75.3	76.3	77	67.6	0	1	270	0.00	29.883 
06:20	75.3	75.3	76.3	77	67.6	0	1	270	0.00	29.883 
06:25	75.3	75.3	76.4	76	67.2	0	1	270	0.00	29.883 
06:30	75.4	75.4	76.5	76	67.3	0	1	270	0.00	29.882 
06:35	75.4	75.4	76.5	76	67.3	0	1	270	0.00	29.882 
06:40	75.4	75.4	76.6	75	66.9	0	2	270	0.00	29.882 
06:45	75.4	75.4	76.6	75	66.9	0	1	270	0.00	29.887 
06:50	75.6	75.6	76.9	75	67.1	0	2	270	0.00	29.887 
06:55	75.6	75.6	76.9	75	67.1	0	1	270	0.00	29.887 
07:00	75.8	75.8	77.2	74	66.9	1	3	270	0.00	29.887 
07:05	76.0	76.0	77.4	74	67.1	0	2	270	0.00	29.887 
07:10	76.1	76.1	77.6	73	66.8	0	2	270	0.00	29.887 
07:15	76.3	76.3	77.8	73	67.0	0	2	270	0.00	29.893 
07:20	76.5	76.5	78.1	72	66.8	1	2	270	0.00	29.893 
07:25	76.7	76.7	78.4	72	67.0	1	2	270	0.00	29.893 
07:30	77.0	77.0	78.8	71	66.9	1	2	270	0.00	29.895 
07:35	77.2	77.2	79.0	71	67.0	0	2	270	0.00	29.895 
07:40	77.4	77.4	79.3	70	66.8	0	2	270	0.00	29.895 
07:45	77.6	77.6	79.5	70	67.0	0	2	270	0.00	29.895 
07:50	77.9	77.9	79.9	69	66.9	1	2	270	0.00	29.895 
07:55	78.1	78.1	80.1	68	66.7	1	2	270	0.00	29.895 
08:00	78.5	78.5	80.5	67	66.6	1	2	270	0.00	29.897 
08:05	78.6	78.6	80.7	68	67.1	1	3	270	0.00	29.897 
08:10	78.8	78.8	80.9	66	66.5	1	3	248	0.00	29.897 
08:15	79.2	79.2	81.4	66	66.8	1	3	248	0.00	29.898 
08:20	79.2	79.2	81.4	66	66.8	1	3	248	0.00	29.898 
08:25	79.6	79.6	81.8	65	66.8	1	4	292	0.00	29.898 
08:30	79.6	79.6	81.8	65	66.8	1	3	270	0.00	29.893 
08:35	79.8	79.8	82.1	65	67.0	1	4	270	0.00	29.893 
08:40	80.1	80.1	82.5	65	67.2	1	3	292	0.00	29.893 
08:45	80.3	80.3	82.7	64	67.0	1	4	292	0.00	29.889 
08:50	80.5	80.5	82.8	63	66.7	1	3	0	0.00	29.889 
08:55	80.9	80.9	83.4	63	67.1	1	3	0	0.00	29.889 
09:00	81.1	81.1	83.5	62	66.8	1	4	292	0.00	29.888 
09:05	81.4	81.4	83.9	62	67.1	1	3	270	0.00	29.888 
09:10	81.8	81.8	84.5	62	67.5	1	4	270	0.00	29.888 
09:15	82.0	82.0	84.6	61	67.2	2	4	270	0.00	29.887 
09:20	82.2	82.2	84.7	60	66.9	1	3	270	0.00	29.887 
09:25	82.6	82.6	85.3	60	67.3	1	3	315	0.00	29.887 
09:30	82.8	82.8	85.6	60	67.5	1	3	292	0.00	29.887 
09:35	83.2	83.2	86.0	59	67.4	1	3	248	0.00	29.887 
09:40	83.6	83.6	86.4	58	67.2	1	4	248	0.00	29.887 
09:45	84.0	84.0	87.3	59	68.1	1	3	315	0.00	29.886 
09:50	84.1	84.1	87.2	58	67.7	2	4	270	0.00	29.886 
09:55	84.5	84.5	88.1	59	68.6	1	4	270	0.00	29.886 
10:00	84.7	84.7	87.6	56	67.2	1	5	270	0.00	29.882 
10:05	84.9	84.9	88.2	57	67.9	1	2	270	0.00	29.882 
10:10	85.3	85.3	88.8	57	68.3	2	4	315	0.00	29.882 
10:15	85.5	85.5	88.6	55	67.5	1	4	270	0.00	29.882 
10:20	85.7	85.7	88.9	55	67.6	1	4	248	0.00	29.882 
10:25	85.9	85.9	89.6	56	68.3	1	4	248	0.00	29.882 
10:30	86.1	86.1	89.2	54	67.5	2	7	270	0.00	29.877 
10:35	86.3	86.3	89.9	55	68.2	2	4	292	0.00	29.877 
10:40	86.5	86.5	89.9	54	67.8	2	5	270	0.00	29.877 
10:45	87.0	87.0	90.4	53	67.8	1	4	270	0.00	29.878 
10:50	87.2	87.2	90.4	52	67.4	2	4	248	0.00	29.878 
10:55	87.4	87.4	90.7	52	67.6	1	4	270	0.00	29.878 
11:00	87.8	87.8	93.0	56	70.1	1	3	270	0.00	29.878 
11:05	88.4	88.4	92.9	53	69.1	1	3	68	0.00	29.878 
11:10	88.6	88.6	92.5	51	68.1	1	4	270	0.00	29.878 
11:15	88.6	88.6	92.5	51	68.1	2	4	248	0.00	29.877 
11:20	89.0	89.0	93.2	51	68.5	1	4	270	0.00	29.877 
11:25	89.7	89.7	94.9	52	69.7	1	3	270	0.00	29.877 
11:30	89.9	89.9	93.1	47	66.9	2	5	248	0.00	29.876 
11:35	89.7	89.7	93.2	48	67.4	2	4	270	0.00	29.876 
11:40	89.9	89.9	94.0	49	68.1	2	4	248	0.00	29.876 
11:45	89.9	89.9	92.7	46	66.3	3	6	270	0.00	29.879 
11:50	89.9	89.9	93.1	47	66.9	2	6	292	0.00	29.879 
11:55	89.9	89.9	92.7	46	66.3	3	5	270	0.00	29.879 
12:00	90.3	90.3	93.8	47	67.3	2	5	248	0.00	29.877 
12:05	90.5	90.5	93.3	45	66.2	2	4	270	0.00	29.877 
12:10	90.5	90.5	92.9	44	65.6	3	6	270	0.00	29.877 
12:15	90.7	90.7	93.3	44	65.7	2	6	248	0.00	29.879 
12:20	91.2	91.2	94.1	44	66.2	2	4	270	0.00	29.879 
12:25	91.4	91.4	94.0	43	65.7	2	7	270	0.00	29.879 
12:30	91.6	91.6	94.4	43	65.9	2	5	270	0.00	29.878 
12:35	91.6	91.6	94.8	44	66.6	2	6	270	0.00	29.878 
12:40	91.6	91.6	94.8	44	66.6	2	5	270	0.00	29.878 
12:45	91.6	91.6	95.7	46	67.8	2	4	270	0.00	29.881 
12:50	92.1	92.1	96.2	45	67.7	2	4	270	0.00	29.881 
12:55	92.3	92.3	95.6	43	66.5	2	3	270	0.00	29.881 
13:00	92.1	92.1	96.2	45	67.7	2	6	270	0.00	29.882 
13:05	92.3	92.3	96.5	45	67.8	2	4	270	0.00	29.882 
13:10	92.3	92.3	95.1	42	65.8	4	9	270	0.00	29.882 
13:15	92.1	92.1	95.2	43	66.3	2	7	270	0.00	29.883 
13:20	92.3	92.3	96.1	44	67.2	2	5	292	0.00	29.883 
13:25	92.5	92.5	95.5	42	66.0	2	5	292	0.00	29.883 
13:30	92.7	92.7	96.3	43	66.9	2	6	248	0.00	29.880 
13:35	92.9	92.9	97.2	44	67.7	2	4	270	0.00	29.880 
13:40	92.9	92.9	96.7	43	67.1	1	4	270	0.00	29.880 
13:45	93.2	93.2	97.2	43	67.3	2	6	270	0.00	29.878 
13:50	92.9	92.9	96.7	43	67.1	2	5	292	0.00	29.878 
13:55	92.9	92.9	96.7	43	67.1	3	6	248	0.00	29.878 
14:00	92.7	92.7	95.8	42	66.2	3	6	270	0.00	29.870 
14:05	92.7	92.7	95.4	41	65.5	2	5	248	0.00	29.870 
14:10	92.7	92.7	95.8	42	66.2	3	6	270	0.00	29.870 
14:15	92.9	92.9	96.2	42	66.4	1	4	270	0.00	29.866 
14:20	93.2	93.2	96.7	42	66.6	2	4	270	0.00	29.866 
14:25	93.4	93.4	96.1	40	65.4	3	9	292	0.00	29.866 
14:30	93.4	93.4	95.7	39	64.7	3	6	270	0.00	29.860 
14:35	93.2	93.2	96.2	41	65.9	2	5	270	0.00	29.860 
14:40	93.2	93.2	95.8	40	65.2	2	9	270	0.00	29.860 
14:45	93.2	93.2	95.8	40	65.2	2	5	270	0.00	29.852 
14:50	93.4	93.4	96.1	40	65.4	2	7	292	0.00	29.852 
14:55	93.4	93.4	96.1	40	65.4	2	6	270	0.00	29.852 
15:00	93.6	93.6	96.5	40	65.6	1	6	270	0.00	29.848 
15:05	93.8	93.8	96.8	40	65.8	1	4	270	0.00	29.848 
15:10	94.0	94.0	96.7	39	65.2	2	5	270	0.00	29.848 
15:15	93.8	93.8	96.3	39	65.0	2	5	270	0.00	29.850 
15:20	93.6	93.6	96.5	40	65.6	2	7	292	0.00	29.850 
15:25	93.8	93.8	95.4	37	63.5	2	4	270	0.00	29.850 
15:30	94.3	94.3	96.3	37	64.0	2	7	270	0.00	29.849 
15:35	94.3	94.3	96.3	37	64.0	2	5	270	0.00	29.849 
15:40	94.5	94.5	97.1	38	64.9	2	5	270	0.00	29.849 
15:45	94.9	94.9	97.8	38	65.3	2	5	270	0.00	29.844 
15:50	95.1	95.1	97.6	37	64.7	1	3	270	0.00	29.844 
15:55	94.7	94.7	95.6	34	61.9	3	5	270	0.00	29.844 
16:00	94.5	94.5	95.7	35	62.6	2	5	270	0.00	29.843 
16:05	94.5	94.5	95.3	34	61.7	3	7	270	0.00	29.843 
16:10	94.5	94.5	95.7	35	62.6	2	7	270	0.00	29.843 
16:15	94.5	94.5	96.6	37	64.1	2	5	248	0.00	29.839 
16:20	94.5	94.5	96.6	37	64.1	2	5	292	0.00	29.839 
16:25	94.5	94.5	95.7	35	62.6	2	5	270	0.00	29.839 
16:30	94.5	94.5	95.3	34	61.7	3	6	270	0.00	29.838 
16:35	94.5	94.5	97.1	38	64.9	2	5	270	0.00	29.838 
16:40	94.5	94.5	95.7	35	62.6	2	4	270	0.00	29.838 
16:45	94.5	94.5	95.7	35	62.6	2	6	270	0.00	29.833 
16:50	94.5	94.5	96.1	36	63.4	2	5	248	0.00	29.833 
16:55	94.5	94.5	96.1	36	63.4	2	5	270	0.00	29.833 
17:00	94.5	94.5	95.7	35	62.6	2	6	270	0.00	29.833 
17:05	94.5	94.5	96.6	37	64.1	1	3	270	0.00	29.833 
17:10	94.3	94.3	96.7	38	64.7	1	3	270	0.00	29.833 
17:15	94.5	94.5	96.6	37	64.1	2	4	270	0.00	29.826 
17:20	94.5	94.5	96.6	37	64.1	1	4	270	0.00	29.826 
17:25	94.3	94.3	95.8	36	63.2	2	6	270	0.00	29.826 
17:30	94.0	94.0	95.8	37	63.7	2	5	270	0.00	29.825 
17:35	93.8	93.8	95.9	38	64.3	2	4	248	0.00	29.825 
17:40	93.6	93.6	94.7	36	62.6	3	7	270	0.00	29.825 
17:45	93.6	93.6	95.1	37	63.4	2	5	270	0.00	29.825 
17:50	93.6	93.6	95.1	37	63.4	1	4	292	0.00	29.825 
17:55	93.4	93.4	95.2	38	63.9	2	4	270	0.00	29.825 
18:00	93.2	93.2	94.5	37	63.0	2	4	270	0.00	29.825 
18:05	92.9	92.9	94.4	38	63.5	1	4	270	0.00	29.825 
18:10	92.9	92.9	94.8	39	64.2	1	5	270	0.00	29.825 
18:15	92.9	92.9	94.8	39	64.2	2	4	248	0.00	29.822 
18:20	92.7	92.7	94.5	39	64.1	1	4	270	0.00	29.822 
18:25	92.7	92.7	94.1	38	63.3	2	4	270	0.00	29.822 
18:30	92.5	92.5	94.6	40	64.6	1	7	270	0.00	29.819 
18:35	92.3	92.3	93.4	38	63.0	2	4	292	0.00	29.819 
18:40	92.3	92.3	93.4	38	63.0	2	5	292	0.00	29.819 
18:45	92.1	92.1	93.5	39	63.5	1	5	292	0.00	29.811 
18:50	92.1	92.1	93.5	39	63.5	1	3	292	0.00	29.811 
18:55	92.1	92.1	92.8	37	62.0	2	4	248	0.00	29.811 
19:00	91.8	91.8	92.7	38	62.5	2	5	292	0.00	29.813 
19:05	91.8	91.8	93.1	39	63.3	1	2	292	0.00	29.813 
19:10	91.8	91.8	93.1	39	63.3	1	2	292	0.00	29.813 
19:15	91.6	91.6	92.4	38	62.3	1	7	292	0.00	29.818 
19:20	91.6	91.6	92.0	37	61.6	2	6	270	0.00	29.818 
19:25	91.4	91.4	91.7	37	61.4	1	5	292	0.00	29.818 
19:30	91.4	91.4	91.7	37	61.4	2	4	270	0.00	29.821 
19:35	91.4	91.4	92.1	38	62.2	1	4	270	0.00	29.821 
19:40	91.2	91.2	91.8	38	62.0	1	3	270	0.00	29.821 
19:45	91.2	91.2	92.1	39	62.7	1	4	270	0.00	29.822 
19:50	91.0	91.0	91.8	39	62.6	1	3	270	0.00	29.822 
19:55	90.7	90.7	91.7	40	63.0	1	4	270	0.00	29.822 
20:00	90.5	90.5	91.1	39	62.1	1	5	270	0.00	29.823 
20:05	90.5	90.5	91.4	40	62.8	1	4	270	0.00	29.823 
20:10	90.3	90.3	91.1	40	62.7	1	2	270	0.00	29.823 
20:15	90.1	90.1	91.2	41	63.2	1	3	270	0.00	29.824 
20:20	89.9	89.9	90.9	41	63.0	1	3	270	0.00	29.824 
20:25	89.9	89.9	91.2	42	63.7	1	3	270	0.00	29.824 
20:30	89.5	89.5	91.0	43	64.0	0	1	270	0.00	29.825 
20:35	89.3	89.3	91.0	44	64.5	0	2	270	0.00	29.825 
20:40	89.0	89.0	90.5	44	64.2	0	1	270	0.00	29.825 
20:45	88.8	88.8	90.6	45	64.7	0	3	270	0.00	29.824 
20:50	88.6	88.6	90.6	46	65.1	0	1	270	0.00	29.824 
20:55	88.2	88.2	90.0	46	64.8	0	1	270	0.00	29.824 
21:00	88.0	88.0	89.7	46	64.6	0	1	270	0.00	29.825 
21:05	87.6	87.6	89.4	47	64.8	0	1	270	0.00	29.825 
21:10	87.4	87.4	89.4	48	65.3	0	1	270	0.00	29.825 
21:15	87.0	87.0	89.1	49	65.5	0	1	270	0.00	29.822 
21:20	86.5	86.5	88.3	49	65.0	0	1	270	0.00	29.822 
21:25	86.1	86.1	88.0	50	65.3	0	0	---	0.00	29.822 
21:30	85.9	85.9	88.0	51	65.6	0	0	---	0.00	29.822 
21:35	85.5	85.5	87.4	51	65.3	0	1	270	0.00	29.822 
21:40	85.1	85.1	87.1	52	65.5	0	1	270	0.00	29.822 
21:45	85.1	85.1	87.1	52	65.5	0	1	270	0.00	29.820 
21:50	84.9	84.9	87.1	53	65.8	0	0	---	0.00	29.820 
21:55	84.7	84.7	87.0	54	66.2	0	0	---	0.00	29.820 
22:00	84.3	84.3	86.5	54	65.8	0	0	---	0.00	29.823 
22:05	84.1	84.1	86.4	55	66.2	0	1	270	0.00	29.823 
22:10	84.0	84.0	86.0	54	65.5	0	1	270	0.00	29.823 
22:15	83.8	83.8	85.7	54	65.3	0	1	270	0.00	29.820 
22:20	83.8	83.8	86.0	55	65.9	0	1	270	0.00	29.820 
22:25	84.0	84.0	86.3	55	66.1	0	3	270	0.00	29.820 
22:30	84.0	84.0	86.3	55	66.1	0	2	270	0.00	29.825 
22:35	84.0	84.0	86.3	55	66.1	0	2	270	0.00	29.825 
22:40	84.0	84.0	86.3	55	66.1	0	2	270	0.00	29.825 
22:45	84.0	84.0	86.3	55	66.1	0	1	270	0.00	29.830 
22:50	84.0	84.0	86.3	55	66.1	0	1	270	0.00	29.830 
22:55	84.0	84.0	86.5	56	66.6	0	2	270	0.00	29.830 
23:00	84.0	84.0	86.5	56	66.6	0	3	270	0.00	29.833 
23:05	84.0	84.0	86.5	56	66.6	0	3	292	0.00	29.833 
23:10	84.0	84.0	86.5	56	66.6	1	2	292	0.00	29.833 
23:15	84.0	84.0	86.5	56	66.6	1	4	292	0.00	29.832 
23:20	84.0	84.0	86.7	57	67.1	0	5	248	0.00	29.832 
23:25	83.8	83.8	86.4	57	66.9	1	4	270	0.00	29.832 
23:30	83.8	83.8	86.4	57	66.9	0	3	248	0.00	29.819 
23:35	83.8	83.8	86.7	58	67.4	0	2	248	0.00	29.819 
23:40	83.8	83.8	86.7	58	67.4	1	7	248	0.00	29.819 
23:45	83.6	83.6	86.4	58	67.2	1	4	270	0.00	29.828 
23:50	83.8	83.8	86.7	58	67.4	1	4	270	0.00	29.828 
23:55	83.8	83.8	86.7	58	67.4	1	4	270	0.00	29.828 

CoCoRaHS
IN-AL-39
A2 Web Hosting
Creative Commons License
GoDaddy
search engine by freefind advanced

loaded 2018-11-15 17:45:07 • last modified 2010-11-18 10:43:29
Privacy PolicyDisclaimer
• wx.awcolley.com is powered by PmWiki v.2002016 •
• all content (unless otherwise noted) © 2018 A W Colley